LLBG

Ben Gurion International Airport

Tel Aviv, Israel
METAR LLBG 170620Z 17010KT 9999 SCT040 10/07 Q1019 BECMG 26015KT RMK BKN060
Observed Flight Rules
Jan-17 @ 06:20 UTC (39 minutes ago) Visual Flight Rules
Wind Visibility Clouds
170° at 10 knots 10,000+ meters
  • Scattered at 4,000' AGL
Temperatures Readings
Current 10°C / 50°F
Dewpoint 7°C / 45°F
Humidity 82%
Altimeter 30.09" Hg
Pressure 1018.92 hPa
Elevation 49
METAR LLBG 170620Z 17010KT 9999 SCT040 10/07 Q1019 BECMG 26015KT RMK BKN060
Observed Flight Rules
Jan-17 @ 06:20 UTC
(39 minutes ago)
VFR
Wind Visibility
170° at 10 knots 10,000+ meters
Clouds
  • Scattered at 4,000' AGL
Temperature Dewpoint
10°C / 50°F 7°C / 45°F
Humidity Altimeter Pressure
82% 30.09" Hg 1018.92 hPa